sensor_id;sensor_type;location;lat;lon;timestamp;P1;durP1;ratioP1;P2;durP2;ratioP2
39346;SDS011;26262;49.836;6.632;2023-02-11T00:01:28;44.65;;;29.23;;
39346;SDS011;26262;49.836;6.632;2023-02-11T00:03:55;49.58;;;28.48;;
39346;SDS011;26262;49.836;6.632;2023-02-11T00:06:23;48.13;;;29.50;;
39346;SDS011;26262;49.836;6.632;2023-02-11T00:08:49;45.35;;;26.33;;
39346;SDS011;26262;49.836;6.632;2023-02-11T00:11:16;50.40;;;30.02;;
39346;SDS011;26262;49.836;6.632;2023-02-11T00:13:42;52.47;;;32.17;;
39346;SDS011;26262;49.836;6.632;2023-02-11T00:16:10;45.53;;;27.85;;
39346;SDS011;26262;49.836;6.632;2023-02-11T00:18:38;46.55;;;28.75;;
39346;SDS011;26262;49.836;6.632;2023-02-11T00:21:11;48.75;;;30.92;;
39346;SDS011;26262;49.836;6.632;2023-02-11T00:23:38;46.20;;;28.52;;
39346;SDS011;26262;49.836;6.632;2023-02-11T00:26:09;44.90;;;28.10;;
39346;SDS011;26262;49.836;6.632;2023-02-11T00:28:46;44.83;;;30.00;;
39346;SDS011;26262;49.836;6.632;2023-02-11T00:31:13;44.13;;;29.35;;
39346;SDS011;26262;49.836;6.632;2023-02-11T00:33:40;43.67;;;28.95;;
39346;SDS011;26262;49.836;6.632;2023-02-11T00:36:07;44.88;;;28.88;;
39346;SDS011;26262;49.836;6.632;2023-02-11T00:38:35;46.90;;;27.92;;
39346;SDS011;26262;49.836;6.632;2023-02-11T00:41:01;46.83;;;28.52;;
39346;SDS011;26262;49.836;6.632;2023-02-11T00:43:26;51.35;;;30.42;;
39346;SDS011;26262;49.836;6.632;2023-02-11T00:45:52;46.88;;;28.20;;
39346;SDS011;26262;49.836;6.632;2023-02-11T00:48:17;47.47;;;28.45;;
39346;SDS011;26262;49.836;6.632;2023-02-11T00:50:43;45.42;;;27.65;;
39346;SDS011;26262;49.836;6.632;2023-02-11T00:53:09;43.70;;;28.52;;
39346;SDS011;26262;49.836;6.632;2023-02-11T00:55:34;43.90;;;25.35;;
39346;SDS011;26262;49.836;6.632;2023-02-11T00:58:00;46.40;;;26.73;;
39346;SDS011;26262;49.836;6.632;2023-02-11T01:00:26;38.05;;;25.05;;
39346;SDS011;26262;49.836;6.632;2023-02-11T01:02:52;37.80;;;24.40;;
39346;SDS011;26262;49.836;6.632;2023-02-11T01:05:18;37.97;;;23.65;;
39346;SDS011;26262;49.836;6.632;2023-02-11T01:07:44;40.40;;;25.17;;
39346;SDS011;26262;49.836;6.632;2023-02-11T01:10:10;37.80;;;24.60;;
39346;SDS011;26262;49.836;6.632;2023-02-11T01:12:39;40.53;;;25.00;;
39346;SDS011;26262;49.836;6.632;2023-02-11T01:15:05;38.03;;;22.90;;
39346;SDS011;26262;49.836;6.632;2023-02-11T01:17:32;42.28;;;24.20;;
39346;SDS011;26262;49.836;6.632;2023-02-11T01:20:00;41.33;;;25.27;;
39346;SDS011;26262;49.836;6.632;2023-02-11T01:22:28;38.67;;;23.75;;
39346;SDS011;26262;49.836;6.632;2023-02-11T01:24:54;35.42;;;23.55;;
39346;SDS011;26262;49.836;6.632;2023-02-11T01:27:20;36.25;;;23.77;;
39346;SDS011;26262;49.836;6.632;2023-02-11T01:29:45;38.53;;;24.10;;
39346;SDS011;26262;49.836;6.632;2023-02-11T01:32:11;39.90;;;24.27;;
39346;SDS011;26262;49.836;6.632;2023-02-11T01:34:36;38.75;;;25.58;;
39346;SDS011;26262;49.836;6.632;2023-02-11T01:37:02;37.15;;;23.77;;
39346;SDS011;26262;49.836;6.632;2023-02-11T01:39:27;40.45;;;25.65;;
39346;SDS011;26262;49.836;6.632;2023-02-11T01:41:56;40.58;;;26.23;;
39346;SDS011;26262;49.836;6.632;2023-02-11T01:44:35;39.80;;;24.55;;
39346;SDS011;26262;49.836;6.632;2023-02-11T01:47:02;40.90;;;25.45;;
39346;SDS011;26262;49.836;6.632;2023-02-11T01:49:31;38.17;;;24.55;;
39346;SDS011;26262;49.836;6.632;2023-02-11T01:52:03;36.83;;;23.15;;
39346;SDS011;26262;49.836;6.632;2023-02-11T01:54:34;38.90;;;24.95;;
39346;SDS011;26262;49.836;6.632;2023-02-11T01:57:22;38.55;;;23.80;;
39346;SDS011;26262;49.836;6.632;2023-02-11T02:08:27;30.42;;;20.58;;
39346;SDS011;26262;49.836;6.632;2023-02-11T02:10:56;33.55;;;21.70;;
39346;SDS011;26262;49.836;6.632;2023-02-11T02:15:56;35.53;;;21.85;;
39346;SDS011;26262;49.836;6.632;2023-02-11T02:24:02;30.58;;;20.75;;
39346;SDS011;26262;49.836;6.632;2023-02-11T02:32:54;33.33;;;21.00;;
39346;SDS011;26262;49.836;6.632;2023-02-11T02:38:06;35.17;;;22.17;;
39346;SDS011;26262;49.836;6.632;2023-02-11T02:40:37;37.33;;;21.90;;
39346;SDS011;26262;49.836;6.632;2023-02-11T02:43:10;35.85;;;22.60;;
39346;SDS011;26262;49.836;6.632;2023-02-11T02:45:37;41.88;;;24.02;;
39346;SDS011;26262;49.836;6.632;2023-02-11T02:48:03;37.03;;;23.15;;
39346;SDS011;26262;49.836;6.632;2023-02-11T02:50:32;35.85;;;21.33;;
39346;SDS011;26262;49.836;6.632;2023-02-11T02:53:12;35.92;;;22.33;;
39346;SDS011;26262;49.836;6.632;2023-02-11T02:56:01;34.45;;;21.77;;
39346;SDS011;26262;49.836;6.632;2023-02-11T03:04:36;30.08;;;20.25;;
39346;SDS011;26262;49.836;6.632;2023-02-11T03:07:19;35.45;;;22.98;;
39346;SDS011;26262;49.836;6.632;2023-02-11T03:09:51;32.70;;;22.25;;
39346;SDS011;26262;49.836;6.632;2023-02-11T03:12:25;34.65;;;22.20;;
39346;SDS011;26262;49.836;6.632;2023-02-11T03:14:54;33.42;;;20.95;;
39346;SDS011;26262;49.836;6.632;2023-02-11T03:17:19;31.77;;;21.50;;
39346;SDS011;26262;49.836;6.632;2023-02-11T03:19:47;36.20;;;21.50;;
39346;SDS011;26262;49.836;6.632;2023-02-11T03:22:16;33.95;;;22.13;;
39346;SDS011;26262;49.836;6.632;2023-02-11T03:24:45;35.75;;;23.85;;
39346;SDS011;26262;49.836;6.632;2023-02-11T03:27:45;35.20;;;22.55;;
39346;SDS011;26262;49.836;6.632;2023-02-11T03:32:50;33.65;;;21.13;;
39346;SDS011;26262;49.836;6.632;2023-02-11T03:35:33;32.78;;;21.20;;
39346;SDS011;26262;49.836;6.632;2023-02-11T03:40:45;34.65;;;22.25;;
39346;SDS011;26262;49.836;6.632;2023-02-11T03:43:13;28.98;;;19.65;;
39346;SDS011;26262;49.836;6.632;2023-02-11T03:45:43;32.65;;;21.65;;
39346;SDS011;26262;49.836;6.632;2023-02-11T03:50:40;32.42;;;21.20;;
39346;SDS011;26262;49.836;6.632;2023-02-11T03:53:08;35.33;;;22.45;;
39346;SDS011;26262;49.836;6.632;2023-02-11T03:55:36;32.20;;;21.00;;
39346;SDS011;26262;49.836;6.632;2023-02-11T03:58:04;34.67;;;20.40;;
39346;SDS011;26262;49.836;6.632;2023-02-11T04:00:31;32.35;;;20.75;;
39346;SDS011;26262;49.836;6.632;2023-02-11T04:03:02;35.50;;;22.20;;
39346;SDS011;26262;49.836;6.632;2023-02-11T04:05:28;35.10;;;23.05;;
39346;SDS011;26262;49.836;6.632;2023-02-11T04:07:54;34.78;;;22.55;;
39346;SDS011;26262;49.836;6.632;2023-02-11T04:10:20;33.83;;;21.63;;
39346;SDS011;26262;49.836;6.632;2023-02-11T04:12:45;31.42;;;21.63;;
39346;SDS011;26262;49.836;6.632;2023-02-11T04:15:11;31.70;;;21.38;;
39346;SDS011;26262;49.836;6.632;2023-02-11T04:17:37;35.42;;;21.85;;
39346;SDS011;26262;49.836;6.632;2023-02-11T04:20:03;36.67;;;24.40;;
39346;SDS011;26262;49.836;6.632;2023-02-11T04:22:29;37.17;;;24.40;;
39346;SDS011;26262;49.836;6.632;2023-02-11T04:24:55;42.20;;;26.75;;
39346;SDS011;26262;49.836;6.632;2023-02-11T04:27:20;38.53;;;25.55;;
39346;SDS011;26262;49.836;6.632;2023-02-11T04:29:46;39.47;;;26.75;;
39346;SDS011;26262;49.836;6.632;2023-02-11T04:32:12;36.75;;;25.98;;
39346;SDS011;26262;49.836;6.632;2023-02-11T04:34:37;37.97;;;23.83;;
39346;SDS011;26262;49.836;6.632;2023-02-11T04:37:03;37.53;;;24.63;;
39346;SDS011;26262;49.836;6.632;2023-02-11T04:39:28;33.95;;;21.50;;
39346;SDS011;26262;49.836;6.632;2023-02-11T04:41:54;35.20;;;22.90;;
39346;SDS011;26262;49.836;6.632;2023-02-11T04:44:20;33.13;;;21.92;;
39346;SDS011;26262;49.836;6.632;2023-02-11T04:46:46;34.50;;;22.42;;
39346;SDS011;26262;49.836;6.632;2023-02-11T04:49:12;32.80;;;22.45;;
39346;SDS011;26262;49.836;6.632;2023-02-11T04:51:38;32.10;;;20.15;;
39346;SDS011;26262;49.836;6.632;2023-02-11T04:54:04;34.28;;;21.73;;
39346;SDS011;26262;49.836;6.632;2023-02-11T04:56:29;34.45;;;20.75;;
39346;SDS011;26262;49.836;6.632;2023-02-11T04:58:55;27.92;;;19.95;;
39346;SDS011;26262;49.836;6.632;2023-02-11T05:01:20;31.58;;;20.67;;
39346;SDS011;26262;49.836;6.632;2023-02-11T05:03:46;30.60;;;21.58;;
39346;SDS011;26262;49.836;6.632;2023-02-11T05:06:12;32.67;;;21.77;;
39346;SDS011;26262;49.836;6.632;2023-02-11T05:08:38;31.63;;;20.95;;
39346;SDS011;26262;49.836;6.632;2023-02-11T05:11:04;31.33;;;19.60;;
39346;SDS011;26262;49.836;6.632;2023-02-11T05:13:30;29.33;;;19.90;;
39346;SDS011;26262;49.836;6.632;2023-02-11T05:15:55;32.85;;;21.42;;
39346;SDS011;26262;49.836;6.632;2023-02-11T05:18:21;31.38;;;21.15;;
39346;SDS011;26262;49.836;6.632;2023-02-11T05:20:47;30.13;;;20.65;;
39346;SDS011;26262;49.836;6.632;2023-02-11T05:23:13;34.30;;;22.67;;
39346;SDS011;26262;49.836;6.632;2023-02-11T05:25:38;31.75;;;21.77;;
39346;SDS011;26262;49.836;6.632;2023-02-11T05:28:04;34.80;;;21.02;;
39346;SDS011;26262;49.836;6.632;2023-02-11T05:30:30;36.72;;;22.40;;
39346;SDS011;26262;49.836;6.632;2023-02-11T05:32:56;36.08;;;23.65;;
39346;SDS011;26262;49.836;6.632;2023-02-11T05:35:22;34.10;;;22.20;;
39346;SDS011;26262;49.836;6.632;2023-02-11T05:37:47;36.10;;;21.75;;
39346;SDS011;26262;49.836;6.632;2023-02-11T05:40:13;36.97;;;23.88;;
39346;SDS011;26262;49.836;6.632;2023-02-11T05:42:39;40.13;;;24.75;;
39346;SDS011;26262;49.836;6.632;2023-02-11T05:45:04;39.30;;;26.67;;
39346;SDS011;26262;49.836;6.632;2023-02-11T05:47:30;45.55;;;27.80;;
39346;SDS011;26262;49.836;6.632;2023-02-11T05:49:55;41.28;;;25.90;;
39346;SDS011;26262;49.836;6.632;2023-02-11T05:52:21;39.70;;;24.45;;
39346;SDS011;26262;49.836;6.632;2023-02-11T05:54:47;41.97;;;26.17;;
39346;SDS011;26262;49.836;6.632;2023-02-11T05:57:13;39.03;;;26.15;;
39346;SDS011;26262;49.836;6.632;2023-02-11T05:59:39;39.85;;;25.30;;
39346;SDS011;26262;49.836;6.632;2023-02-11T06:02:04;35.15;;;23.58;;
39346;SDS011;26262;49.836;6.632;2023-02-11T06:04:31;39.13;;;24.88;;
39346;SDS011;26262;49.836;6.632;2023-02-11T06:06:58;41.38;;;25.13;;
39346;SDS011;26262;49.836;6.632;2023-02-11T06:09:23;38.70;;;25.65;;
39346;SDS011;26262;49.836;6.632;2023-02-11T06:11:49;38.25;;;24.58;;
39346;SDS011;26262;49.836;6.632;2023-02-11T06:14:14;41.13;;;24.52;;
39346;SDS011;26262;49.836;6.632;2023-02-11T06:16:40;36.55;;;23.60;;
39346;SDS011;26262;49.836;6.632;2023-02-11T06:19:05;37.70;;;24.20;;
39346;SDS011;26262;49.836;6.632;2023-02-11T06:21:31;45.25;;;27.48;;
39346;SDS011;26262;49.836;6.632;2023-02-11T06:23:56;40.72;;;24.83;;
39346;SDS011;26262;49.836;6.632;2023-02-11T06:26:22;41.60;;;27.63;;
39346;SDS011;26262;49.836;6.632;2023-02-11T06:28:48;38.28;;;25.00;;
39346;SDS011;26262;49.836;6.632;2023-02-11T06:31:13;41.15;;;26.90;;
39346;SDS011;26262;49.836;6.632;2023-02-11T06:33:40;39.35;;;24.70;;
39346;SDS011;26262;49.836;6.632;2023-02-11T06:36:10;40.72;;;26.70;;
39346;SDS011;26262;49.836;6.632;2023-02-11T06:38:46;40.17;;;25.45;;
39346;SDS011;26262;49.836;6.632;2023-02-11T06:41:13;39.20;;;24.27;;
39346;SDS011;26262;49.836;6.632;2023-02-11T06:43:40;36.08;;;23.73;;
39346;SDS011;26262;49.836;6.632;2023-02-11T06:46:06;39.17;;;25.33;;
39346;SDS011;26262;49.836;6.632;2023-02-11T06:48:33;38.00;;;24.48;;
39346;SDS011;26262;49.836;6.632;2023-02-11T06:51:02;40.25;;;25.48;;
39346;SDS011;26262;49.836;6.632;2023-02-11T06:53:30;36.80;;;26.38;;
39346;SDS011;26262;49.836;6.632;2023-02-11T06:56:06;40.50;;;26.48;;
39346;SDS011;26262;49.836;6.632;2023-02-11T06:58:33;42.42;;;27.02;;
39346;SDS011;26262;49.836;6.632;2023-02-11T07:00:58;45.03;;;28.10;;
39346;SDS011;26262;49.836;6.632;2023-02-11T07:03:27;49.15;;;27.08;;
39346;SDS011;26262;49.836;6.632;2023-02-11T07:05:53;42.30;;;26.15;;
39346;SDS011;26262;49.836;6.632;2023-02-11T07:08:18;44.70;;;28.00;;
39346;SDS011;26262;49.836;6.632;2023-02-11T07:10:44;47.65;;;27.10;;
39346;SDS011;26262;49.836;6.632;2023-02-11T07:13:09;40.90;;;25.02;;
39346;SDS011;26262;49.836;6.632;2023-02-11T07:15:35;38.92;;;25.65;;
39346;SDS011;26262;49.836;6.632;2023-02-11T07:18:01;38.35;;;24.20;;
39346;SDS011;26262;49.836;6.632;2023-02-11T07:20:27;37.97;;;24.55;;
39346;SDS011;26262;49.836;6.632;2023-02-11T07:22:53;37.22;;;24.33;;
39346;SDS011;26262;49.836;6.632;2023-02-11T07:25:18;39.05;;;25.15;;
39346;SDS011;26262;49.836;6.632;2023-02-11T07:27:44;41.40;;;27.38;;
39346;SDS011;26262;49.836;6.632;2023-02-11T07:30:10;41.80;;;26.73;;
39346;SDS011;26262;49.836;6.632;2023-02-11T07:32:36;40.22;;;27.73;;
39346;SDS011;26262;49.836;6.632;2023-02-11T07:35:01;38.90;;;25.95;;
39346;SDS011;26262;49.836;6.632;2023-02-11T07:37:27;39.40;;;25.42;;
39346;SDS011;26262;49.836;6.632;2023-02-11T07:39:53;38.60;;;26.13;;
39346;SDS011;26262;49.836;6.632;2023-02-11T07:42:19;40.85;;;25.83;;
39346;SDS011;26262;49.836;6.632;2023-02-11T07:44:45;40.15;;;26.50;;
39346;SDS011;26262;49.836;6.632;2023-02-11T07:47:10;44.17;;;27.33;;
39346;SDS011;26262;49.836;6.632;2023-02-11T07:49:36;39.72;;;26.92;;
39346;SDS011;26262;49.836;6.632;2023-02-11T07:52:01;42.78;;;26.42;;
39346;SDS011;26262;49.836;6.632;2023-02-11T07:54:27;43.35;;;26.98;;
39346;SDS011;26262;49.836;6.632;2023-02-11T07:56:53;40.72;;;27.52;;
39346;SDS011;26262;49.836;6.632;2023-02-11T07:59:18;42.10;;;27.05;;
39346;SDS011;26262;49.836;6.632;2023-02-11T08:01:44;39.20;;;25.40;;
39346;SDS011;26262;49.836;6.632;2023-02-11T08:04:09;44.00;;;28.13;;
39346;SDS011;26262;49.836;6.632;2023-02-11T08:06:39;44.38;;;29.88;;
39346;SDS011;26262;49.836;6.632;2023-02-11T08:09:07;46.25;;;29.77;;
39346;SDS011;26262;49.836;6.632;2023-02-11T08:11:35;46.85;;;32.13;;
39346;SDS011;26262;49.836;6.632;2023-02-11T08:14:00;45.95;;;31.77;;
39346;SDS011;26262;49.836;6.632;2023-02-11T08:16:27;43.10;;;28.40;;
39346;SDS011;26262;49.836;6.632;2023-02-11T08:18:58;44.50;;;28.08;;
39346;SDS011;26262;49.836;6.632;2023-02-11T08:21:25;45.03;;;26.50;;
39346;SDS011;26262;49.836;6.632;2023-02-11T08:23:51;39.00;;;25.88;;
39346;SDS011;26262;49.836;6.632;2023-02-11T08:26:19;40.67;;;26.75;;
39346;SDS011;26262;49.836;6.632;2023-02-11T08:28:47;38.50;;;24.58;;
39346;SDS011;26262;49.836;6.632;2023-02-11T08:31:15;34.97;;;24.20;;
39346;SDS011;26262;49.836;6.632;2023-02-11T08:33:43;38.88;;;24.08;;
39346;SDS011;26262;49.836;6.632;2023-02-11T08:36:09;40.65;;;25.77;;
39346;SDS011;26262;49.836;6.632;2023-02-11T08:38:37;40.90;;;26.15;;
39346;SDS011;26262;49.836;6.632;2023-02-11T08:41:03;42.53;;;26.88;;
39346;SDS011;26262;49.836;6.632;2023-02-11T08:43:29;38.42;;;25.10;;
39346;SDS011;26262;49.836;6.632;2023-02-11T08:45:55;37.65;;;24.92;;
39346;SDS011;26262;49.836;6.632;2023-02-11T08:48:21;44.03;;;27.08;;
39346;SDS011;26262;49.836;6.632;2023-02-11T08:50:46;44.03;;;28.02;;
39346;SDS011;26262;49.836;6.632;2023-02-11T08:53:12;41.00;;;26.77;;
39346;SDS011;26262;49.836;6.632;2023-02-11T08:55:37;46.45;;;28.02;;
39346;SDS011;26262;49.836;6.632;2023-02-11T08:58:03;39.58;;;27.83;;
39346;SDS011;26262;49.836;6.632;2023-02-11T09:00:29;44.97;;;28.58;;
39346;SDS011;26262;49.836;6.632;2023-02-11T09:02:54;39.97;;;28.15;;
39346;SDS011;26262;49.836;6.632;2023-02-11T09:05:20;46.78;;;30.17;;
39346;SDS011;26262;49.836;6.632;2023-02-11T09:07:46;41.67;;;28.08;;
39346;SDS011;26262;49.836;6.632;2023-02-11T09:10:12;43.55;;;29.23;;
39346;SDS011;26262;49.836;6.632;2023-02-11T09:12:38;41.70;;;27.55;;
39346;SDS011;26262;49.836;6.632;2023-02-11T09:15:03;41.95;;;26.95;;
39346;SDS011;26262;49.836;6.632;2023-02-11T09:17:29;41.90;;;26.42;;
39346;SDS011;26262;49.836;6.632;2023-02-11T09:19:55;37.78;;;24.98;;
39346;SDS011;26262;49.836;6.632;2023-02-11T09:22:20;40.03;;;24.67;;
39346;SDS011;26262;49.836;6.632;2023-02-11T09:24:46;38.60;;;25.98;;
39346;SDS011;26262;49.836;6.632;2023-02-11T09:27:11;40.72;;;26.65;;
39346;SDS011;26262;49.836;6.632;2023-02-11T09:29:37;41.63;;;25.42;;
39346;SDS011;26262;49.836;6.632;2023-02-11T09:32:02;36.78;;;25.08;;
39346;SDS011;26262;49.836;6.632;2023-02-11T09:34:28;50.15;;;31.17;;
39346;SDS011;26262;49.836;6.632;2023-02-11T09:36:54;42.58;;;28.35;;
39346;SDS011;26262;49.836;6.632;2023-02-11T09:39:19;39.10;;;26.42;;
39346;SDS011;26262;49.836;6.632;2023-02-11T09:41:53;41.97;;;27.02;;
39346;SDS011;26262;49.836;6.632;2023-02-11T09:44:37;41.80;;;24.90;;
39346;SDS011;26262;49.836;6.632;2023-02-11T09:47:04;41.60;;;26.02;;
39346;SDS011;26262;49.836;6.632;2023-02-11T09:49:38;41.95;;;24.58;;
39346;SDS011;26262;49.836;6.632;2023-02-11T09:55:02;38.40;;;25.42;;
39346;SDS011;26262;49.836;6.632;2023-02-11T09:57:35;40.58;;;26.83;;
39346;SDS011;26262;49.836;6.632;2023-02-11T10:00:02;41.13;;;25.17;;
39346;SDS011;26262;49.836;6.632;2023-02-11T10:06:02;37.63;;;24.55;;
39346;SDS011;26262;49.836;6.632;2023-02-11T10:08:58;38.22;;;24.15;;
39346;SDS011;26262;49.836;6.632;2023-02-11T10:11:46;33.97;;;23.40;;
39346;SDS011;26262;49.836;6.632;2023-02-11T10:23:11;33.67;;;22.55;;
39346;SDS011;26262;49.836;6.632;2023-02-11T10:25:42;41.00;;;25.05;;
39346;SDS011;26262;49.836;6.632;2023-02-11T10:28:12;36.17;;;22.60;;
39346;SDS011;26262;49.836;6.632;2023-02-11T10:30:42;35.20;;;23.48;;
39346;SDS011;26262;49.836;6.632;2023-02-11T10:33:25;37.58;;;23.60;;
39346;SDS011;26262;49.836;6.632;2023-02-11T10:35:59;35.55;;;22.10;;
39346;SDS011;26262;49.836;6.632;2023-02-11T10:38:25;34.45;;;20.33;;
39346;SDS011;26262;49.836;6.632;2023-02-11T10:40:51;30.05;;;20.05;;
39346;SDS011;26262;49.836;6.632;2023-02-11T10:43:18;31.65;;;19.60;;
39346;SDS011;26262;49.836;6.632;2023-02-11T10:45:47;29.55;;;19.77;;
39346;SDS011;26262;49.836;6.632;2023-02-11T10:53:36;31.90;;;20.67;;
39346;SDS011;26262;49.836;6.632;2023-02-11T10:56:02;32.80;;;19.98;;
39346;SDS011;26262;49.836;6.632;2023-02-11T10:58:40;31.25;;;19.02;;
39346;SDS011;26262;49.836;6.632;2023-02-11T11:01:06;26.60;;;18.02;;
39346;SDS011;26262;49.836;6.632;2023-02-11T11:03:53;29.88;;;19.45;;
39346;SDS011;26262;49.836;6.632;2023-02-11T11:06:28;28.48;;;18.58;;
39346;SDS011;26262;49.836;6.632;2023-02-11T11:08:55;30.25;;;18.67;;
39346;SDS011;26262;49.836;6.632;2023-02-11T11:11:21;26.60;;;17.83;;
39346;SDS011;26262;49.836;6.632;2023-02-11T11:16:18;30.10;;;18.25;;
39346;SDS011;26262;49.836;6.632;2023-02-11T11:18:50;26.48;;;17.58;;
39346;SDS011;26262;49.836;6.632;2023-02-11T11:26:17;29.60;;;19.13;;
39346;SDS011;26262;49.836;6.632;2023-02-11T11:28:51;35.13;;;21.88;;
39346;SDS011;26262;49.836;6.632;2023-02-11T11:34:14;30.98;;;19.63;;
39346;SDS011;26262;49.836;6.632;2023-02-11T11:36:46;30.90;;;20.83;;
39346;SDS011;26262;49.836;6.632;2023-02-11T11:39:17;37.67;;;21.00;;
39346;SDS011;26262;49.836;6.632;2023-02-11T11:41:48;29.55;;;20.17;;
39346;SDS011;26262;49.836;6.632;2023-02-11T11:46:50;31.20;;;20.17;;
39346;SDS011;26262;49.836;6.632;2023-02-11T11:49:36;28.92;;;19.15;;
39346;SDS011;26262;49.836;6.632;2023-02-11T11:54:52;29.15;;;19.17;;
39346;SDS011;26262;49.836;6.632;2023-02-11T11:57:24;32.63;;;20.88;;
39346;SDS011;26262;49.836;6.632;2023-02-11T11:59:52;31.85;;;20.98;;
39346;SDS011;26262;49.836;6.632;2023-02-11T12:02:34;33.50;;;20.23;;
39346;SDS011;26262;49.836;6.632;2023-02-11T12:05:32;32.88;;;21.02;;
39346;SDS011;26262;49.836;6.632;2023-02-11T12:14:05;29.80;;;18.13;;
39346;SDS011;26262;49.836;6.632;2023-02-11T12:16:49;36.35;;;23.02;;
39346;SDS011;26262;49.836;6.632;2023-02-11T12:25:25;29.40;;;18.85;;
39346;SDS011;26262;49.836;6.632;2023-02-11T12:27:55;36.63;;;20.52;;
39346;SDS011;26262;49.836;6.632;2023-02-11T12:33:10;30.02;;;20.00;;
39346;SDS011;26262;49.836;6.632;2023-02-11T12:35:58;29.08;;;19.92;;
39346;SDS011;26262;49.836;6.632;2023-02-11T12:44:27;31.15;;;20.55;;
39346;SDS011;26262;49.836;6.632;2023-02-11T12:47:07;33.40;;;21.60;;
39346;SDS011;26262;49.836;6.632;2023-02-11T12:49:53;32.25;;;21.63;;
39346;SDS011;26262;49.836;6.632;2023-02-11T12:55:27;39.15;;;22.30;;
39346;SDS011;26262;49.836;6.632;2023-02-11T12:57:55;28.42;;;19.58;;
39346;SDS011;26262;49.836;6.632;2023-02-11T13:00:25;34.28;;;21.50;;
39346;SDS011;26262;49.836;6.632;2023-02-11T13:05:45;34.85;;;21.92;;
39346;SDS011;26262;49.836;6.632;2023-02-11T13:08:28;32.72;;;21.17;;
39346;SDS011;26262;49.836;6.632;2023-02-11T13:10:58;30.10;;;19.73;;
39346;SDS011;26262;49.836;6.632;2023-02-11T13:13:36;37.28;;;21.23;;
39346;SDS011;26262;49.836;6.632;2023-02-11T13:16:19;31.77;;;21.98;;
39346;SDS011;26262;49.836;6.632;2023-02-11T13:29:55;35.97;;;22.65;;
39346;SDS011;26262;49.836;6.632;2023-02-11T13:32:27;31.92;;;20.95;;
39346;SDS011;26262;49.836;6.632;2023-02-11T13:35:35;35.15;;;22.05;;
39346;SDS011;26262;49.836;6.632;2023-02-11T13:38:03;33.67;;;20.63;;
39346;SDS011;26262;49.836;6.632;2023-02-11T13:40:41;35.70;;;21.40;;
39346;SDS011;26262;49.836;6.632;2023-02-11T13:43:19;28.90;;;19.73;;
39346;SDS011;26262;49.836;6.632;2023-02-11T13:45:47;28.23;;;18.38;;
39346;SDS011;26262;49.836;6.632;2023-02-11T13:48:22;33.05;;;19.83;;
39346;SDS011;26262;49.836;6.632;2023-02-11T13:50:51;33.05;;;19.77;;
39346;SDS011;26262;49.836;6.632;2023-02-11T13:53:20;26.33;;;18.30;;
39346;SDS011;26262;49.836;6.632;2023-02-11T13:55:47;28.52;;;19.08;;
39346;SDS011;26262;49.836;6.632;2023-02-11T14:00:52;30.85;;;21.00;;
39346;SDS011;26262;49.836;6.632;2023-02-11T14:21:54;32.33;;;20.15;;
39346;SDS011;26262;49.836;6.632;2023-02-11T14:27:06;35.55;;;21.27;;
39346;SDS011;26262;49.836;6.632;2023-02-11T14:29:50;37.42;;;22.52;;
39346;SDS011;26262;49.836;6.632;2023-02-11T14:32:37;44.97;;;25.60;;
39346;SDS011;26262;49.836;6.632;2023-02-11T14:43:35;35.55;;;22.45;;
39346;SDS011;26262;49.836;6.632;2023-02-11T14:46:06;32.08;;;21.35;;
39346;SDS011;26262;49.836;6.632;2023-02-11T14:48:34;34.03;;;21.92;;
39346;SDS011;26262;49.836;6.632;2023-02-11T14:51:03;36.28;;;24.23;;
39346;SDS011;26262;49.836;6.632;2023-02-11T14:56:16;33.53;;;21.88;;
39346;SDS011;26262;49.836;6.632;2023-02-11T14:58:45;31.73;;;19.42;;
39346;SDS011;26262;49.836;6.632;2023-02-11T15:03:53;32.55;;;21.35;;
39346;SDS011;26262;49.836;6.632;2023-02-11T15:06:39;36.22;;;21.80;;
39346;SDS011;26262;49.836;6.632;2023-02-11T15:09:18;33.70;;;22.77;;
39346;SDS011;26262;49.836;6.632;2023-02-11T15:11:53;36.38;;;23.85;;
39346;SDS011;26262;49.836;6.632;2023-02-11T15:14:21;32.05;;;21.40;;
39346;SDS011;26262;49.836;6.632;2023-02-11T15:16:48;33.17;;;21.08;;
39346;SDS011;26262;49.836;6.632;2023-02-11T15:19:18;30.55;;;21.85;;
39346;SDS011;26262;49.836;6.632;2023-02-11T15:21:55;36.55;;;21.63;;
39346;SDS011;26262;49.836;6.632;2023-02-11T15:24:40;39.72;;;22.58;;
39346;SDS011;26262;49.836;6.632;2023-02-11T15:29:40;32.50;;;20.42;;
39346;SDS011;26262;49.836;6.632;2023-02-11T15:32:12;30.08;;;20.40;;
39346;SDS011;26262;49.836;6.632;2023-02-11T15:34:39;30.83;;;19.08;;
39346;SDS011;26262;49.836;6.632;2023-02-11T15:37:06;28.85;;;19.10;;
39346;SDS011;26262;49.836;6.632;2023-02-11T15:39:35;34.85;;;20.98;;
39346;SDS011;26262;49.836;6.632;2023-02-11T15:42:18;29.52;;;19.20;;
39346;SDS011;26262;49.836;6.632;2023-02-11T15:44:43;30.58;;;19.92;;
39346;SDS011;26262;49.836;6.632;2023-02-11T15:47:10;27.70;;;17.95;;
39346;SDS011;26262;49.836;6.632;2023-02-11T15:49:42;29.60;;;19.67;;
39346;SDS011;26262;49.836;6.632;2023-02-11T15:52:08;35.38;;;21.58;;
39346;SDS011;26262;49.836;6.632;2023-02-11T15:54:35;32.42;;;21.95;;
39346;SDS011;26262;49.836;6.632;2023-02-11T15:57:02;34.35;;;20.15;;
39346;SDS011;26262;49.836;6.632;2023-02-11T15:59:32;36.63;;;22.42;;
39346;SDS011;26262;49.836;6.632;2023-02-11T16:04:48;29.85;;;20.83;;
39346;SDS011;26262;49.836;6.632;2023-02-11T16:10:17;37.53;;;21.35;;
39346;SDS011;26262;49.836;6.632;2023-02-11T16:15:42;29.75;;;20.98;;
39346;SDS011;26262;49.836;6.632;2023-02-11T16:18:29;34.85;;;23.08;;
39346;SDS011;26262;49.836;6.632;2023-02-11T16:21:01;28.77;;;19.27;;
39346;SDS011;26262;49.836;6.632;2023-02-11T16:23:31;32.30;;;20.63;;
39346;SDS011;26262;49.836;6.632;2023-02-11T16:26:06;28.02;;;18.73;;
39346;SDS011;26262;49.836;6.632;2023-02-11T16:31:03;29.20;;;19.05;;
39346;SDS011;26262;49.836;6.632;2023-02-11T16:33:29;29.73;;;19.73;;
39346;SDS011;26262;49.836;6.632;2023-02-11T16:35:55;30.20;;;18.88;;
39346;SDS011;26262;49.836;6.632;2023-02-11T16:38:21;27.08;;;17.85;;
39346;SDS011;26262;49.836;6.632;2023-02-11T16:40:47;32.97;;;20.42;;
39346;SDS011;26262;49.836;6.632;2023-02-11T16:43:14;36.00;;;21.35;;
39346;SDS011;26262;49.836;6.632;2023-02-11T16:45:42;32.80;;;21.42;;
39346;SDS011;26262;49.836;6.632;2023-02-11T16:48:08;30.65;;;20.58;;
39346;SDS011;26262;49.836;6.632;2023-02-11T16:50:39;32.33;;;20.25;;
39346;SDS011;26262;49.836;6.632;2023-02-11T16:53:09;25.10;;;16.83;;
39346;SDS011;26262;49.836;6.632;2023-02-11T16:55:36;32.58;;;20.08;;
39346;SDS011;26262;49.836;6.632;2023-02-11T16:58:01;37.05;;;19.58;;
39346;SDS011;26262;49.836;6.632;2023-02-11T17:00:27;32.13;;;19.25;;
39346;SDS011;26262;49.836;6.632;2023-02-11T17:02:53;37.30;;;22.80;;
39346;SDS011;26262;49.836;6.632;2023-02-11T17:05:20;31.30;;;20.95;;
39346;SDS011;26262;49.836;6.632;2023-02-11T17:07:47;33.72;;;22.42;;
39346;SDS011;26262;49.836;6.632;2023-02-11T17:10:13;27.75;;;18.65;;
39346;SDS011;26262;49.836;6.632;2023-02-11T17:12:40;28.90;;;17.77;;
39346;SDS011;26262;49.836;6.632;2023-02-11T17:15:06;26.65;;;17.15;;
39346;SDS011;26262;49.836;6.632;2023-02-11T17:17:31;34.70;;;20.45;;